createdAt,value
2018-08-31T00:01:43.563Z,92.65
2018-08-31T00:05:32.307Z,93.55
2018-08-31T00:07:27.315Z,93.45
2018-08-31T00:09:18.331Z,92.78
2018-08-31T00:11:20.732Z,92.91
2018-08-31T00:12:56.536Z,92.74
2018-08-31T00:14:32.596Z,93.18
2018-08-31T00:16:08.766Z,93.33
2018-08-31T00:17:45.894Z,93.18
2018-08-31T00:19:21.080Z,92.90
2018-08-31T00:20:57.051Z,93.48
2018-08-31T00:22:33.511Z,93.45
2018-08-31T00:24:20.344Z,93.03
2018-08-31T00:26:15.353Z,92.65
2018-08-31T00:28:01.449Z,92.65
2018-08-31T00:29:49.610Z,92.67
2018-08-31T00:35:48.466Z,92.56
2018-08-31T00:39:39.638Z,93.04
2018-08-31T00:51:04.209Z,92.59
2018-08-31T00:52:39.276Z,92.90
2018-08-31T00:54:14.860Z,92.73
2018-08-31T00:55:50.281Z,92.98
2018-08-31T00:57:26.343Z,92.65
2018-08-31T00:59:02.669Z,92.45
2018-08-31T01:00:38.035Z,92.68
2018-08-31T01:02:14.107Z,92.46
2018-08-31T01:03:49.317Z,93.12
2018-08-31T01:05:25.136Z,93.02
2018-08-31T01:07:00.710Z,92.84
2018-08-31T01:08:36.533Z,92.70
2018-08-31T01:10:11.792Z,93.06
2018-08-31T01:11:47.359Z,92.26
2018-08-31T01:13:22.964Z,92.27
2018-08-31T01:14:59.989Z,92.69
2018-08-31T01:16:35.552Z,92.48
2018-08-31T01:18:10.663Z,92.99
2018-08-31T01:19:46.181Z,92.56
2018-08-31T01:21:21.696Z,92.62
2018-08-31T01:22:56.652Z,92.26
2018-08-31T01:24:33.152Z,92.51
2018-08-31T01:26:08.303Z,92.63
2018-08-31T01:27:44.120Z,92.37
2018-08-31T01:29:19.634Z,92.47
2018-08-31T01:30:55.116Z,92.62
2018-08-31T01:32:30.472Z,92.58
2018-08-31T01:34:05.377Z,92.80
2018-08-31T01:35:40.457Z,92.59
2018-08-31T01:37:15.623Z,92.91
2018-08-31T01:38:53.574Z,92.68
2018-08-31T01:40:29.157Z,92.59
2018-08-31T01:42:04.189Z,92.83
2018-08-31T01:43:39.821Z,92.17
2018-08-31T01:45:17.141Z,92.53
2018-08-31T01:46:52.262Z,92.35
2018-08-31T01:48:27.713Z,92.83
2018-08-31T01:50:02.734Z,92.35
2018-08-31T01:51:38.617Z,92.73
2018-08-31T01:53:14.067Z,92.65
2018-08-31T01:54:49.393Z,92.58
2018-08-31T01:56:24.672Z,92.91
2018-08-31T01:58:00.449Z,93.04
2018-08-31T01:59:36.041Z,92.71
2018-08-31T02:01:11.507Z,92.76
2018-08-31T02:02:46.506Z,93.04
2018-08-31T02:04:21.550Z,93.00
2018-08-31T02:05:57.281Z,92.78
2018-08-31T02:07:32.293Z,92.56
2018-08-31T02:09:13.710Z,92.95
2018-08-31T02:10:49.257Z,93.00
2018-08-31T02:12:24.375Z,93.03
2018-08-31T02:14:00.072Z,93.14
2018-08-31T02:15:35.424Z,92.81
2018-08-31T02:17:10.518Z,93.23
2018-08-31T02:18:45.407Z,92.86
2018-08-31T02:20:20.743Z,93.13
2018-08-31T02:21:56.196Z,93.27
2018-08-31T02:23:31.186Z,93.38
2018-08-31T02:25:06.389Z,93.41
2018-08-31T02:26:41.443Z,93.31
2018-08-31T02:28:16.622Z,93.68
2018-08-31T02:29:52.240Z,93.24
2018-08-31T02:31:27.306Z,93.48
2018-08-31T02:33:02.239Z,93.16
2018-08-31T02:34:38.480Z,93.91
2018-08-31T02:36:13.713Z,93.53
2018-08-31T02:37:51.052Z,93.41
2018-08-31T02:39:27.085Z,93.51
2018-08-31T02:41:03.220Z,93.29
2018-08-31T02:42:39.998Z,93.83
2018-08-31T02:44:15.854Z,93.70
2018-08-31T02:45:51.597Z,93.66
2018-08-31T02:47:26.854Z,93.71
2018-08-31T02:49:01.871Z,93.74
2018-08-31T02:50:37.114Z,93.60
2018-08-31T02:52:12.440Z,93.70
2018-08-31T02:53:47.601Z,93.81
2018-08-31T02:55:22.796Z,93.77
2018-08-31T02:56:57.681Z,93.73
2018-08-31T02:58:32.719Z,94.19
2018-08-31T03:00:07.939Z,93.73
2018-08-31T03:01:43.614Z,94.20
2018-08-31T03:03:19.887Z,93.87
2018-08-31T03:04:55.084Z,93.98
2018-08-31T03:06:30.757Z,94.03
2018-08-31T03:08:06.255Z,94.13
2018-08-31T03:09:41.261Z,94.03
2018-08-31T03:11:17.317Z,94.37
2018-08-31T03:12:52.497Z,93.62
2018-08-31T03:14:27.560Z,94.08
2018-08-31T03:16:04.401Z,94.07
2018-08-31T03:17:41.661Z,94.31
2018-08-31T03:19:16.529Z,93.77
2018-08-31T03:20:51.709Z,94.28
2018-08-31T03:22:26.640Z,93.80
2018-08-31T03:24:04.270Z,94.17
2018-08-31T03:25:39.684Z,93.99
2018-08-31T03:27:14.849Z,94.40
2018-08-31T03:28:51.413Z,94.35
2018-08-31T03:30:26.578Z,94.14
2018-08-31T03:32:01.840Z,94.13
2018-08-31T03:33:37.071Z,94.18
2018-08-31T03:35:12.276Z,93.94
2018-08-31T03:36:47.291Z,94.24
2018-08-31T03:38:22.771Z,94.52
2018-08-31T03:39:58.012Z,94.13
2018-08-31T03:41:32.919Z,94.63
2018-08-31T03:43:07.964Z,94.05
2018-08-31T03:44:42.910Z,94.43
2018-08-31T03:46:18.116Z,94.80
2018-08-31T03:47:53.488Z,94.56
2018-08-31T03:49:29.787Z,94.30
2018-08-31T03:51:09.251Z,94.42
2018-08-31T03:52:44.271Z,94.33
2018-08-31T03:54:19.148Z,94.33
2018-08-31T03:55:55.239Z,94.49
2018-08-31T03:57:31.000Z,94.46
2018-08-31T03:59:05.861Z,94.67
2018-08-31T04:00:49.624Z,94.68
2018-08-31T04:02:24.900Z,94.68
2018-08-31T04:04:04.374Z,93.93
2018-08-31T04:05:39.873Z,94.75
2018-08-31T04:07:19.301Z,94.74
2018-08-31T04:08:56.975Z,94.35
2018-08-31T04:10:36.134Z,94.46
2018-08-31T04:12:14.555Z,94.58
2018-08-31T04:13:52.910Z,94.63
2018-08-31T04:15:37.694Z,94.15
2018-08-31T04:17:13.395Z,94.37
2018-08-31T04:18:49.183Z,94.82
2018-08-31T04:20:24.402Z,94.21
2018-08-31T04:22:02.433Z,94.26
2018-08-31T04:23:38.795Z,94.42
2018-08-31T04:25:13.823Z,94.22
2018-08-31T04:26:48.759Z,94.65
2018-08-31T04:28:23.623Z,94.76
2018-08-31T04:29:58.528Z,94.45
2018-08-31T04:31:33.737Z,94.81
2018-08-31T04:33:10.279Z,94.85
2018-08-31T04:34:45.560Z,94.60
2018-08-31T04:36:20.743Z,94.79
2018-08-31T04:37:55.742Z,94.67
2018-08-31T04:39:31.227Z,94.63
2018-08-31T04:41:06.749Z,94.70
2018-08-31T04:42:41.739Z,94.62
2018-08-31T04:44:16.793Z,94.53
2018-08-31T04:45:51.709Z,94.61
2018-08-31T04:47:27.054Z,94.66
2018-08-31T04:49:02.394Z,94.78
2018-08-31T04:50:37.420Z,94.79
2018-08-31T04:52:13.306Z,94.29
2018-08-31T04:53:48.247Z,94.39
2018-08-31T04:55:23.444Z,94.62
2018-08-31T04:56:58.254Z,94.42
2018-08-31T04:58:34.109Z,94.65
2018-08-31T05:00:09.981Z,94.71
2018-08-31T05:01:45.154Z,94.98
2018-08-31T05:03:20.601Z,94.80
2018-08-31T05:04:56.651Z,94.83
2018-08-31T05:06:31.695Z,94.69
2018-08-31T05:08:06.759Z,94.67
2018-08-31T05:09:44.503Z,95.06
2018-08-31T05:11:21.945Z,94.94
2018-08-31T05:12:56.821Z,95.02
2018-08-31T05:14:44.869Z,94.31
2018-08-31T05:16:29.969Z,94.36
2018-08-31T05:18:23.968Z,94.94
2018-08-31T05:22:28.546Z,94.78
2018-08-31T05:24:17.690Z,95.07
2018-08-31T05:25:54.873Z,94.75
2018-08-31T05:27:31.356Z,94.82
2018-08-31T05:29:06.621Z,95.01
2018-08-31T05:30:41.938Z,94.70
2018-08-31T05:32:17.093Z,94.66
2018-08-31T05:33:54.640Z,94.97
2018-08-31T05:35:31.549Z,94.31
2018-08-31T05:37:06.681Z,94.93
2018-08-31T05:38:43.510Z,94.25
2018-08-31T05:40:23.744Z,94.65
2018-08-31T05:41:58.844Z,94.80
2018-08-31T05:43:34.624Z,94.77
2018-08-31T05:45:10.122Z,94.16
2018-08-31T05:46:47.845Z,94.65
2018-08-31T05:48:23.197Z,94.80
2018-08-31T05:49:59.516Z,94.45
2018-08-31T05:51:34.607Z,94.47
2018-08-31T05:53:09.627Z,94.29
2018-08-31T05:54:45.070Z,94.27
2018-08-31T05:56:20.014Z,94.30
2018-08-31T05:57:55.611Z,94.38
2018-08-31T05:59:30.622Z,93.90
2018-08-31T06:01:10.662Z,94.06
2018-08-31T06:02:45.830Z,94.08
2018-08-31T06:04:22.215Z,94.23
2018-08-31T06:05:57.297Z,94.26
2018-08-31T06:07:32.524Z,94.06
2018-08-31T06:09:09.428Z,93.81
2018-08-31T06:10:44.475Z,93.59
2018-08-31T06:12:19.466Z,93.71
2018-08-31T06:13:54.454Z,94.08
2018-08-31T06:15:30.322Z,93.90
2018-08-31T06:17:05.848Z,94.00
2018-08-31T06:18:42.029Z,93.62
2018-08-31T06:20:17.726Z,93.68
2018-08-31T06:21:53.955Z,93.26
2018-08-31T06:23:28.964Z,94.08
2018-08-31T06:25:04.594Z,93.64
2018-08-31T06:26:40.788Z,93.73
2018-08-31T06:28:16.006Z,93.24
2018-08-31T06:29:50.979Z,93.52
2018-08-31T06:31:26.814Z,93.49
2018-08-31T06:33:02.626Z,93.48
2018-08-31T06:34:38.511Z,92.79
2018-08-31T06:36:14.083Z,93.09
2018-08-31T06:37:49.118Z,92.97
2018-08-31T06:39:24.073Z,92.88
2018-08-31T06:40:59.715Z,92.59
2018-08-31T06:42:34.702Z,92.69
2018-08-31T06:44:10.428Z,92.85
2018-08-31T06:45:46.465Z,92.92
2018-08-31T06:47:21.711Z,92.20
2018-08-31T06:48:56.613Z,91.99
2018-08-31T06:50:31.565Z,92.56
2018-08-31T06:52:07.923Z,91.88
2018-08-31T06:53:43.551Z,91.74
2018-08-31T06:55:18.716Z,91.48
2018-08-31T06:56:53.852Z,90.89
2018-08-31T06:58:30.226Z,91.20
2018-08-31T07:00:09.668Z,91.17
2018-08-31T07:01:45.375Z,91.15
2018-08-31T07:03:21.251Z,90.68
2018-08-31T07:04:56.195Z,90.17
2018-08-31T07:06:31.462Z,89.91
2018-08-31T07:08:06.597Z,90.28
2018-08-31T07:09:41.562Z,89.73
2018-08-31T07:11:17.867Z,88.87
2018-08-31T07:12:53.709Z,89.14
2018-08-31T07:14:30.466Z,88.71
2018-08-31T07:16:05.618Z,87.69
2018-08-31T07:17:40.544Z,87.93
2018-08-31T07:19:17.943Z,87.35
2018-08-31T07:20:53.457Z,86.51
2018-08-31T07:22:28.708Z,86.82
2018-08-31T07:24:03.979Z,86.67
2018-08-31T07:25:43.755Z,86.15
2018-08-31T07:27:18.682Z,86.03
2018-08-31T07:28:55.591Z,85.14
2018-08-31T07:30:31.105Z,85.02
2018-08-31T07:32:08.917Z,84.49
2018-08-31T07:33:43.988Z,83.22
2018-08-31T07:35:22.122Z,82.51
2018-08-31T07:36:57.333Z,82.73
2018-08-31T07:38:32.673Z,81.76
2018-08-31T07:40:07.910Z,81.16
2018-08-31T07:41:43.120Z,80.99
2018-08-31T07:43:18.071Z,79.88
2018-08-31T07:44:54.584Z,79.74
2018-08-31T07:46:30.051Z,78.92
2018-08-31T07:48:06.274Z,78.72
2018-08-31T07:49:41.612Z,78.19
2018-08-31T07:51:18.095Z,77.23
2018-08-31T07:52:53.835Z,76.57
2018-08-31T07:54:30.526Z,76.21
2018-08-31T07:56:13.505Z,75.68
2018-08-31T07:57:51.193Z,75.50
2018-08-31T07:59:27.640Z,75.46
2018-08-31T08:01:07.544Z,74.50
2018-08-31T08:02:42.576Z,73.73
2018-08-31T08:04:19.573Z,73.34
2018-08-31T08:05:55.881Z,71.88
2018-08-31T08:07:34.618Z,71.70
2018-08-31T08:09:10.985Z,70.31
2018-08-31T08:10:48.084Z,69.92
2018-08-31T08:12:25.007Z,69.07
2018-08-31T08:14:02.604Z,69.24
2018-08-31T08:15:44.329Z,68.21
2018-08-31T08:17:28.529Z,67.28
2018-08-31T08:19:09.119Z,67.24
2018-08-31T08:20:46.751Z,65.39
2018-08-31T08:22:23.889Z,64.71
2018-08-31T08:24:03.743Z,65.13
2018-08-31T08:25:39.084Z,64.61
2018-08-31T08:27:14.271Z,64.28
2018-08-31T08:28:50.365Z,63.63
2018-08-31T08:30:30.445Z,64.19
2018-08-31T08:32:06.606Z,64.71
2018-08-31T08:33:42.717Z,65.61
2018-08-31T08:35:19.289Z,64.92
2018-08-31T08:36:55.788Z,64.53
2018-08-31T08:38:30.951Z,64.48
2018-08-31T08:40:06.755Z,63.19
2018-08-31T08:41:42.604Z,62.49
2018-08-31T08:43:21.773Z,60.97
2018-08-31T08:44:59.180Z,59.71
2018-08-31T08:46:34.389Z,58.47
2018-08-31T08:48:13.344Z,55.55
2018-08-31T08:49:49.282Z,54.15
2018-08-31T08:51:25.935Z,54.61
2018-08-31T08:53:02.022Z,54.19
2018-08-31T08:54:37.031Z,56.78
2018-08-31T08:56:12.568Z,56.15
2018-08-31T08:57:48.109Z,56.88
2018-08-31T08:59:23.333Z,57.84
2018-08-31T09:01:00.660Z,57.68
2018-08-31T09:02:36.531Z,57.04
2018-08-31T09:04:11.617Z,57.95
2018-08-31T09:05:47.319Z,57.41
2018-08-31T09:07:22.187Z,58.67
2018-08-31T09:08:57.484Z,58.29
2018-08-31T09:10:32.694Z,57.10
2018-08-31T09:12:12.617Z,60.45
2018-08-31T09:13:47.689Z,59.91
2018-08-31T09:15:23.770Z,60.56
2018-08-31T09:16:58.920Z,60.04
2018-08-31T09:18:35.363Z,61.35
2018-08-31T09:20:11.981Z,61.65
2018-08-31T09:21:48.999Z,61.37
2018-08-31T09:23:24.888Z,61.07
2018-08-31T09:24:59.947Z,59.95
2018-08-31T09:26:35.796Z,61.42
2018-08-31T09:28:14.667Z,63.00
2018-08-31T09:29:52.900Z,63.05
2018-08-31T09:31:28.510Z,63.13
2018-08-31T09:33:05.985Z,62.64
2018-08-31T09:34:50.069Z,62.11
2018-08-31T09:36:25.312Z,60.98
2018-08-31T09:38:04.316Z,62.01
2018-08-31T09:39:40.361Z,60.34
2018-08-31T09:41:18.893Z,59.62
2018-08-31T09:43:00.867Z,58.49
2018-08-31T09:44:37.405Z,56.46
2018-08-31T09:46:15.155Z,56.42
2018-08-31T09:47:59.834Z,55.19
2018-08-31T09:49:34.919Z,55.39
2018-08-31T09:51:10.631Z,56.08
2018-08-31T09:52:47.218Z,56.38
2018-08-31T09:54:26.124Z,55.54
2018-08-31T09:56:12.567Z,55.39
2018-08-31T09:57:48.578Z,56.12
2018-08-31T09:59:28.098Z,54.46
2018-08-31T10:01:14.787Z,55.77
2018-08-31T10:02:58.187Z,54.94
2018-08-31T10:04:33.771Z,53.74
2018-08-31T10:06:11.730Z,53.72
2018-08-31T10:07:47.275Z,54.16
2018-08-31T10:12:10.935Z,52.78
2018-08-31T10:13:46.722Z,54.20
2018-08-31T10:15:26.619Z,53.19
2018-08-31T10:17:02.064Z,52.42
2018-08-31T10:18:39.774Z,51.36
2018-08-31T10:20:15.868Z,52.57
2018-08-31T10:21:52.713Z,52.25
2018-08-31T10:23:29.600Z,51.89
2018-08-31T10:25:06.512Z,53.27
2018-08-31T10:26:48.531Z,52.34
2018-08-31T10:28:24.284Z,51.59
2018-08-31T10:30:00.358Z,51.98
2018-08-31T10:31:39.560Z,51.56
2018-08-31T10:33:19.901Z,50.94
2018-08-31T10:34:55.701Z,50.88
2018-08-31T10:36:31.969Z,51.25
2018-08-31T10:38:09.623Z,52.60
2018-08-31T10:39:45.879Z,52.31
2018-08-31T10:41:23.604Z,53.23
2018-08-31T10:42:59.505Z,54.59
2018-08-31T10:44:35.291Z,52.70
2018-08-31T10:46:10.398Z,51.91
2018-08-31T10:47:50.180Z,51.72
2018-08-31T10:49:26.362Z,49.33
2018-08-31T10:51:02.732Z,50.28
2018-08-31T10:52:37.825Z,50.62
2018-08-31T10:54:14.486Z,50.00
2018-08-31T10:55:54.632Z,50.10
2018-08-31T10:57:31.178Z,48.29
2018-08-31T10:59:09.405Z,48.22
2018-08-31T11:00:48.631Z,47.49
2018-08-31T11:02:25.902Z,47.28
2018-08-31T11:04:01.780Z,47.37
2018-08-31T11:05:38.835Z,49.13
2018-08-31T11:07:15.593Z,47.78
2018-08-31T11:08:53.507Z,49.10
2018-08-31T11:10:39.551Z,48.52
2018-08-31T11:12:17.891Z,48.70
2018-08-31T11:13:54.867Z,47.04
2018-08-31T11:15:31.800Z,46.72
2018-08-31T11:17:09.726Z,47.86
2018-08-31T11:18:49.279Z,48.42
2018-08-31T11:20:26.781Z,48.91
2018-08-31T11:22:04.628Z,48.46
2018-08-31T11:23:58.671Z,46.45
2018-08-31T11:25:35.782Z,47.42
2018-08-31T11:27:10.706Z,47.74
2018-08-31T11:28:45.734Z,47.15
2018-08-31T11:30:21.830Z,45.51
2018-08-31T11:32:06.526Z,46.47
2018-08-31T11:33:46.172Z,44.78
2018-08-31T11:35:21.548Z,43.74
2018-08-31T11:36:57.497Z,43.83
2018-08-31T11:38:32.524Z,44.66
2018-08-31T11:40:08.242Z,41.49
2018-08-31T11:41:43.197Z,42.64
2018-08-31T11:43:19.020Z,43.50
2018-08-31T11:44:55.601Z,41.85
2018-08-31T11:46:31.302Z,44.15
2018-08-31T11:48:07.399Z,42.94
2018-08-31T11:49:44.326Z,41.50
2018-08-31T11:51:28.135Z,42.02
2018-08-31T11:53:15.828Z,41.95
2018-08-31T11:54:54.441Z,43.85
2018-08-31T11:56:33.704Z,41.26
2018-08-31T11:58:14.874Z,42.90
2018-08-31T11:59:50.912Z,42.07
2018-08-31T12:01:28.371Z,41.95
2018-08-31T12:03:08.013Z,42.00
2018-08-31T12:04:45.884Z,41.87
2018-08-31T12:06:25.484Z,40.90
2018-08-31T12:08:04.474Z,40.98
2018-08-31T12:09:42.544Z,41.16
2018-08-31T12:11:24.610Z,40.34
2018-08-31T12:13:11.014Z,39.47
2018-08-31T12:14:48.524Z,42.79
2018-08-31T12:16:26.797Z,39.91
2018-08-31T12:18:11.094Z,40.82
2018-08-31T12:19:48.488Z,41.57
2018-08-31T12:21:24.997Z,41.24
2018-08-31T12:23:00.172Z,41.25
2018-08-31T12:24:35.646Z,42.48
2018-08-31T12:26:11.991Z,41.28
2018-08-31T12:27:49.013Z,40.38
2018-08-31T12:29:24.553Z,39.11
2018-08-31T12:31:04.081Z,38.95
2018-08-31T12:32:41.147Z,40.16
2018-08-31T12:34:20.412Z,39.03
2018-08-31T12:36:00.371Z,37.61
2018-08-31T12:37:40.031Z,37.49
2018-08-31T12:39:16.898Z,38.83
2018-08-31T12:40:53.213Z,37.42
2018-08-31T12:42:30.339Z,37.65
2018-08-31T12:44:11.570Z,35.48
2018-08-31T12:45:57.036Z,36.54
2018-08-31T12:47:35.169Z,34.93
2018-08-31T12:49:14.253Z,36.44
2018-08-31T12:50:50.618Z,37.56
2018-08-31T12:52:30.162Z,35.91
2018-08-31T12:54:07.228Z,34.97
2018-08-31T12:55:44.748Z,37.02
2018-08-31T12:57:22.345Z,39.61
2018-08-31T12:59:01.791Z,37.94
2018-08-31T13:00:37.257Z,37.62
2018-08-31T13:02:12.283Z,38.21
2018-08-31T13:03:49.934Z,39.08
2018-08-31T13:05:25.543Z,39.39
2018-08-31T13:07:04.168Z,40.63
2018-08-31T13:08:39.487Z,40.40
2018-08-31T13:10:17.710Z,40.64
2018-08-31T13:11:53.007Z,40.40
2018-08-31T13:13:29.230Z,40.95
2018-08-31T13:15:06.458Z,41.10
2018-08-31T13:16:42.402Z,41.45
2018-08-31T13:18:19.662Z,39.64
2018-08-31T13:19:54.917Z,40.85
2018-08-31T13:21:32.454Z,40.84
2018-08-31T13:23:11.418Z,40.38
2018-08-31T13:24:49.135Z,39.80
2018-08-31T13:26:27.537Z,39.80
2018-08-31T13:28:06.839Z,40.33
2018-08-31T13:29:42.693Z,40.66
2018-08-31T13:31:25.097Z,38.96
2018-08-31T13:33:01.953Z,41.85
2018-08-31T13:34:39.588Z,41.04
2018-08-31T13:36:19.470Z,41.56
2018-08-31T13:37:58.683Z,41.95
2018-08-31T13:39:36.955Z,42.70
2018-08-31T13:43:01.089Z,42.59
2018-08-31T13:44:40.924Z,42.24
2018-08-31T13:46:19.678Z,42.76
2018-08-31T13:48:02.001Z,41.72
2018-08-31T13:49:42.512Z,41.70
2018-08-31T13:51:21.978Z,42.64
2018-08-31T13:53:00.885Z,42.32
2018-08-31T13:54:39.754Z,40.85
2018-08-31T13:56:20.875Z,42.09
2018-08-31T13:57:56.840Z,42.27
2018-08-31T13:59:32.539Z,40.76
2018-08-31T14:01:14.924Z,41.33
2018-08-31T14:03:01.289Z,40.97
2018-08-31T14:04:42.624Z,41.96
2018-08-31T14:06:20.769Z,41.15
2018-08-31T14:07:56.782Z,41.16
2018-08-31T14:09:35.744Z,40.75
2018-08-31T14:11:24.438Z,42.46
2018-08-31T14:13:01.933Z,43.47
2018-08-31T14:14:37.810Z,42.39
2018-08-31T14:16:13.269Z,42.69
2018-08-31T14:17:50.249Z,43.48
2018-08-31T14:19:33.907Z,44.39
2018-08-31T14:21:10.979Z,44.67
2018-08-31T14:22:49.504Z,45.64
2018-08-31T14:24:27.983Z,44.83
2018-08-31T14:26:06.924Z,45.64
2018-08-31T14:27:42.068Z,45.97
2018-08-31T14:29:17.879Z,46.41
2018-08-31T14:31:06.509Z,46.71
2018-08-31T14:32:41.876Z,46.60
2018-08-31T14:34:18.085Z,46.18
2018-08-31T14:36:00.634Z,45.77
2018-08-31T14:37:40.004Z,45.76
2018-08-31T14:39:28.772Z,46.96
2018-08-31T14:41:19.770Z,46.41
2018-08-31T14:43:04.334Z,44.91
2018-08-31T14:45:00.600Z,45.82
2018-08-31T14:46:37.445Z,45.95
2018-08-31T14:48:18.875Z,46.51
2018-08-31T14:49:56.676Z,45.92
2018-08-31T14:51:34.357Z,43.37
2018-08-31T14:53:12.570Z,44.20
2018-08-31T14:54:48.942Z,45.20
2018-08-31T14:56:26.858Z,45.23
2018-08-31T14:58:02.827Z,46.53
2018-08-31T14:59:38.398Z,47.19
2018-08-31T15:01:15.848Z,46.21
2018-08-31T15:02:51.313Z,47.57
2018-08-31T15:04:29.139Z,46.91
2018-08-31T15:06:04.231Z,47.34
2018-08-31T15:08:03.169Z,46.50
2018-08-31T15:09:56.452Z,46.44
2018-08-31T15:11:44.199Z,47.58
2018-08-31T15:13:26.699Z,47.43
2018-08-31T15:15:09.361Z,46.60
2018-08-31T15:16:49.834Z,46.03
2018-08-31T15:18:51.546Z,46.05
2018-08-31T15:20:31.020Z,46.01
2018-08-31T15:22:15.474Z,46.62
2018-08-31T15:23:55.432Z,45.29
2018-08-31T15:25:32.623Z,45.51
2018-08-31T15:27:12.549Z,46.14
2018-08-31T15:28:52.290Z,45.32
2018-08-31T15:30:28.930Z,44.84
2018-08-31T15:32:06.613Z,46.10
2018-08-31T15:33:42.422Z,44.27
2018-08-31T15:35:18.444Z,45.27
2018-08-31T15:36:53.849Z,44.16
2018-08-31T15:38:31.365Z,45.89
2018-08-31T15:41:59.942Z,44.84
2018-08-31T15:43:41.792Z,45.96
2018-08-31T15:45:19.871Z,46.01
2018-08-31T15:46:56.290Z,45.48
2018-08-31T15:48:32.538Z,46.32
2018-08-31T15:50:11.602Z,45.61
2018-08-31T15:51:49.223Z,45.77
2018-08-31T15:53:27.233Z,45.64
2018-08-31T15:55:05.735Z,47.44
2018-08-31T15:56:42.312Z,46.99
2018-08-31T15:58:21.507Z,47.66
2018-08-31T16:00:26.638Z,48.72
2018-08-31T16:02:15.343Z,50.15
2018-08-31T16:04:02.128Z,49.45
2018-08-31T16:05:41.653Z,50.33
2018-08-31T16:07:20.683Z,49.55
2018-08-31T16:09:00.456Z,50.15
2018-08-31T16:10:37.018Z,50.52
2018-08-31T16:12:16.745Z,49.72
2018-08-31T16:13:54.789Z,50.99
2018-08-31T16:15:33.817Z,50.98
2018-08-31T16:17:15.206Z,50.97
2018-08-31T16:18:54.254Z,51.37
2018-08-31T16:20:33.280Z,51.04
2018-08-31T16:22:08.417Z,51.10
2018-08-31T16:23:44.963Z,52.31
2018-08-31T16:25:21.303Z,50.21
2018-08-31T16:26:56.710Z,51.01
2018-08-31T16:28:35.139Z,50.63
2018-08-31T16:30:14.700Z,50.02
2018-08-31T16:31:51.338Z,51.05
2018-08-31T16:33:27.177Z,50.33
2018-08-31T16:35:03.501Z,51.38
2018-08-31T16:36:40.584Z,51.56
2018-08-31T16:38:20.591Z,51.39
2018-08-31T16:39:57.309Z,51.46
2018-08-31T16:41:33.129Z,50.88
2018-08-31T16:43:12.251Z,51.13
2018-08-31T16:44:48.352Z,51.79
2018-08-31T16:46:25.713Z,51.95
2018-08-31T16:48:03.020Z,50.97
2018-08-31T16:49:42.662Z,52.15
2018-08-31T16:51:21.029Z,51.73
2018-08-31T16:52:59.084Z,52.23
2018-08-31T16:54:38.147Z,53.16
2018-08-31T16:56:13.468Z,52.17
2018-08-31T16:57:50.701Z,52.37
2018-08-31T16:59:26.967Z,52.62
2018-08-31T17:01:03.597Z,53.08
2018-08-31T17:04:21.864Z,53.73
2018-08-31T17:05:58.584Z,53.61
2018-08-31T17:07:37.369Z,53.85
2018-08-31T17:09:14.591Z,53.42
2018-08-31T17:10:50.982Z,54.39
2018-08-31T17:12:27.953Z,54.41
2018-08-31T17:14:03.814Z,55.04
2018-08-31T17:15:41.660Z,54.03
2018-08-31T17:17:21.090Z,53.79
2018-08-31T17:18:57.243Z,54.63
2018-08-31T17:20:32.756Z,55.11
2018-08-31T17:22:10.976Z,54.30
2018-08-31T17:23:47.240Z,53.72
2018-08-31T17:25:25.725Z,54.75
2018-08-31T17:27:06.644Z,54.38
2018-08-31T17:28:48.282Z,54.09
2018-08-31T17:30:25.447Z,54.19
2018-08-31T17:32:06.799Z,54.88
2018-08-31T17:33:47.922Z,54.84
2018-08-31T17:35:29.699Z,55.16
2018-08-31T17:37:10.037Z,54.72
2018-08-31T17:38:46.203Z,55.04
2018-08-31T17:40:21.519Z,55.35
2018-08-31T17:44:05.826Z,55.56
2018-08-31T17:45:44.024Z,56.36
2018-08-31T17:47:22.006Z,55.86
2018-08-31T17:49:02.440Z,56.27
2018-08-31T17:50:42.673Z,56.82
2018-08-31T17:52:23.457Z,56.61
2018-08-31T17:54:04.540Z,56.45
2018-08-31T17:55:52.828Z,57.02
2018-08-31T17:57:33.779Z,57.38
2018-08-31T17:59:21.261Z,58.32
2018-08-31T18:00:59.294Z,57.65
2018-08-31T18:02:50.611Z,57.74
2018-08-31T18:04:34.558Z,58.24
2018-08-31T18:06:17.559Z,58.38
2018-08-31T18:08:00.260Z,57.80
2018-08-31T18:09:39.367Z,59.12
2018-08-31T18:11:21.544Z,58.76
2018-08-31T18:12:59.412Z,59.00
2018-08-31T18:14:38.225Z,59.19
2018-08-31T18:16:18.732Z,58.42
2018-08-31T18:17:59.004Z,59.00
2018-08-31T18:19:36.281Z,59.71
2018-08-31T18:21:18.228Z,59.22
2018-08-31T18:23:09.212Z,60.42
2018-08-31T18:24:46.115Z,60.29
2018-08-31T18:26:23.285Z,61.93
2018-08-31T18:28:00.456Z,61.58
2018-08-31T18:29:35.622Z,61.19
2018-08-31T18:31:10.998Z,61.38
2018-08-31T18:32:48.628Z,63.02
2018-08-31T18:34:24.731Z,62.36
2018-08-31T18:35:59.817Z,62.64
2018-08-31T18:37:45.461Z,63.01
2018-08-31T18:39:33.636Z,63.33
2018-08-31T18:41:17.383Z,63.79
2018-08-31T18:42:52.880Z,65.06
2018-08-31T18:44:28.046Z,64.87
2018-08-31T18:46:05.607Z,64.78
2018-08-31T18:47:41.358Z,65.23
2018-08-31T18:49:20.555Z,65.58
2018-08-31T18:50:55.649Z,65.57
2018-08-31T18:52:35.373Z,66.25
2018-08-31T18:54:13.026Z,66.89
2018-08-31T18:55:52.475Z,67.51
2018-08-31T18:57:34.119Z,67.71
2018-08-31T18:59:15.604Z,67.58
2018-08-31T19:00:59.289Z,66.94
2018-08-31T19:02:34.435Z,67.60
2018-08-31T19:04:11.511Z,67.44
2018-08-31T19:05:47.921Z,67.79
2018-08-31T19:07:23.452Z,68.24
2018-08-31T19:09:02.255Z,68.46
2018-08-31T19:10:38.699Z,70.39
2018-08-31T19:12:16.407Z,69.85
2018-08-31T19:13:53.569Z,68.94
2018-08-31T19:15:32.077Z,69.25
2018-08-31T19:17:13.708Z,69.68
2018-08-31T19:18:49.038Z,69.26
2018-08-31T19:20:26.155Z,68.94
2018-08-31T19:22:03.558Z,69.95
2018-08-31T19:23:39.381Z,69.98
2018-08-31T19:25:14.555Z,70.47
2018-08-31T19:26:50.453Z,70.85
2018-08-31T19:28:25.538Z,70.97
2018-08-31T19:30:03.120Z,71.41
2018-08-31T19:31:39.152Z,70.51
2018-08-31T19:33:15.000Z,71.36
2018-08-31T19:34:52.391Z,71.77
2018-08-31T19:36:28.234Z,71.58
2018-08-31T19:38:04.925Z,72.22
2018-08-31T19:39:42.016Z,72.22
2018-08-31T19:41:20.134Z,72.56
2018-08-31T19:42:55.732Z,72.67
2018-08-31T19:44:31.594Z,72.79
2018-08-31T19:46:08.067Z,73.23
2018-08-31T19:47:44.124Z,73.04
2018-08-31T19:49:20.233Z,73.13
2018-08-31T19:52:53.540Z,73.26
2018-08-31T20:00:43.251Z,73.44
2018-08-31T20:02:22.438Z,73.65
2018-08-31T20:04:01.424Z,73.64
2018-08-31T20:05:42.047Z,73.57
2018-08-31T20:07:25.435Z,74.05
2018-08-31T20:09:01.662Z,73.27
2018-08-31T20:10:41.696Z,73.28
2018-08-31T20:12:22.096Z,72.72
2018-08-31T20:14:04.752Z,73.06
2018-08-31T20:15:43.166Z,72.69
2018-08-31T20:17:20.698Z,72.14
2018-08-31T20:18:58.345Z,72.74
2018-08-31T20:20:37.731Z,71.98
2018-08-31T20:22:16.433Z,72.17
2018-08-31T20:23:56.576Z,72.60
2018-08-31T20:25:33.110Z,72.35
2018-08-31T20:27:09.104Z,71.34
2018-08-31T20:28:49.570Z,71.72
2018-08-31T20:30:28.170Z,71.68
2018-08-31T20:32:04.751Z,71.48
2018-08-31T20:33:44.815Z,71.11
2018-08-31T20:35:21.027Z,71.60
2018-08-31T20:36:57.092Z,71.18
2018-08-31T20:38:36.792Z,71.51
2018-08-31T20:40:15.742Z,71.32
2018-08-31T20:41:56.756Z,71.39
2018-08-31T20:43:32.703Z,71.52
2018-08-31T20:45:12.551Z,71.70
2018-08-31T20:46:53.133Z,72.16
2018-08-31T20:48:30.065Z,72.10
2018-08-31T20:50:06.272Z,72.06
2018-08-31T20:51:42.768Z,72.45
2018-08-31T20:53:17.998Z,72.38
2018-08-31T20:54:56.409Z,73.06
2018-08-31T20:56:33.627Z,73.17
2018-08-31T20:58:12.814Z,73.30
2018-08-31T20:59:50.494Z,73.18
2018-08-31T21:01:26.303Z,73.22
2018-08-31T21:03:01.739Z,73.23
2018-08-31T21:04:38.202Z,72.95
2018-08-31T21:06:17.585Z,73.78
2018-08-31T21:07:54.010Z,73.74
2018-08-31T21:09:33.327Z,73.43
2018-08-31T21:11:15.539Z,74.01
2018-08-31T21:12:53.293Z,74.23
2018-08-31T21:14:32.418Z,74.09
2018-08-31T21:16:10.041Z,74.04
2018-08-31T21:17:48.576Z,73.83
2018-08-31T21:19:27.776Z,73.71
2018-08-31T21:21:06.482Z,74.07
2018-08-31T21:22:44.598Z,73.93
2018-08-31T21:24:21.730Z,74.35
2018-08-31T21:25:59.443Z,74.52
2018-08-31T21:27:36.561Z,74.73
2018-08-31T21:29:12.378Z,74.73
2018-08-31T21:30:48.105Z,74.71
2018-08-31T21:32:23.638Z,75.04
2018-08-31T21:33:59.380Z,74.75
2018-08-31T21:35:37.281Z,75.00
2018-08-31T21:37:14.616Z,74.98
2018-08-31T21:38:51.775Z,75.12